Weather reports worldwide

Advertisment
San Vicente, Spain (8017): temperature & dewpoint: 04.12.2018 11:00:00 - 10.12.2018 11:00:00 (CET)San Vicente, Spain (8017): wind speed & gusts: 04.12.2018 11:00:00 - 10.12.2018 11:00:00 (CET)San Vicente, Spain (8017): wind direction: 04.12.2018 11:00:00 - 10.12.2018 11:00:00 (CET)San Vicente, Spain (8017): reduced air pressure: 04.12.2018 11:00:00 - 10.12.2018 11:00:00 (CET)San Vicente, Spain (8017): precipitation: 04.12.2018 11:00:00 - 10.12.2018 11:00:00 (CET)
Date & Time tt [°C] td [°C] ff [km/h] ff [kn] fx [km/h] fx [kn] dd ppp [hPa] rr [mm]
10.12.2018 11:00:00 - - - - - - - - -
10.12.2018 10:00:00 7,2 5,5 13 7 17 9 SSW 1033,3 0,0
10.12.2018 09:00:00 6,3 4,8 13 7 16 9 SSW 1033,1 0,0
10.12.2018 08:00:00 6,6 5,1 13 7 18 10 SSW 1033,5 0,0
10.12.2018 07:00:00 6,7 5,1 10 5 16 9 SSW 1033,6 -
10.12.2018 06:00:00 6,8 5,3 12 6 16 8 SSW 1033,3 0,0
10.12.2018 05:00:00 7,2 5,6 11 6 16 8 SSW 1033,5 0,0
10.12.2018 04:00:00 7,6 6,1 11 6 16 8 SSW 1034,1 0,0
10.12.2018 03:00:00 7,6 6,1 12 7 15 8 SSW 1034,5 0,0
10.12.2018 02:00:00 8,6 7,0 10 5 13 7 SSW 1034,4 0,0
10.12.2018 01:00:00 9,9 8,0 7 4 10 6 SSW 1034,7 -
10.12.2018 00:00:00 10,9 8,8 6 3 8 4 SSW 1035,0 0,0
09.12.2018 23:00:00 11,4 9,3 6 3 9 5 SSW 1035,0 0,0
09.12.2018 22:00:00 12,3 9,2 6 3 12 7 W 1035,1 0,0
09.12.2018 21:00:00 12,6 9,9 9 5 26 14 W 1034,9 0,0
09.12.2018 20:00:00 12,5 9,9 10 5 19 10 W 1034,6 0,0
09.12.2018 19:00:00 12,5 9,7 9 5 23 12 W 1034,0 -
09.12.2018 18:00:00 12,6 9,9 13 7 29 15 W 1033,5 0,0
09.12.2018 17:00:00 12,8 10,6 16 8 27 15 W 1033,0 0,0
09.12.2018 16:00:00 12,9 10,8 14 7 25 13 WNW 1032,5 0,0
09.12.2018 15:00:00 12,9 10,8 16 9 32 18 W 1032,3 0,0
09.12.2018 14:00:00 13,0 10,9 17 9 29 16 W 1032,4 0,0
09.12.2018 13:00:00 13,1 11,1 18 10 31 17 WNW 1032,5 -
09.12.2018 12:00:00 12,9 11,0 10 5 34 18 W 1032,7 0,0
09.12.2018 11:00:00 12,7 10,9 10 6 27 15 W 1032,5 0,0
09.12.2018 10:00:00 11,9 10,2 6 3 25 13 W 1031,4 0,0
09.12.2018 09:00:00 12,9 11,3 17 9 38 21 W 1031,0 0,0
09.12.2018 08:00:00 12,8 11,2 24 13 44 24 WNW 1030,7 0,0
09.12.2018 07:00:00 12,6 10,2 7 4 24 13 WSW 1029,8 -
09.12.2018 06:00:00 11,5 9,6 5 3 22 12 WSW 1029,9 0,0
09.12.2018 05:00:00 11,7 10,2 8 5 27 15 W 1029,9 0,0
09.12.2018 04:00:00 9,9 8,0 7 4 19 11 SW 1029,4 0,0
09.12.2018 03:00:00 9,5 7,4 8 5 14 8 SSW 1028,7 0,0
09.12.2018 02:00:00 10,6 8,1 8 4 16 9 SW 1028,8 0,0
09.12.2018 01:00:00 11,6 8,7 7 4 14 8 SW 1029,0 -
09.12.2018 00:00:00 10,0 7,3 11 6 14 8 SSW 1028,7 0,0
08.12.2018 23:00:00 9,9 7,6 11 6 15 8 SSW 1028,5 0,0
08.12.2018 22:00:00 9,8 7,7 11 6 15 8 SSW 1027,9 0,0
08.12.2018 21:00:00 9,7 7,7 11 6 14 8 SSW 1027,5 0,0
08.12.2018 20:00:00 9,6 7,6 10 5 13 7 SSW 1027,6 0,0
08.12.2018 19:00:00 10,5 7,8 9 5 13 7 SW 1028,0 -
08.12.2018 18:00:00 11,3 8,0 7 4 11 6 SSW 1027,9 0,0
08.12.2018 17:00:00 12,6 8,3 0 0 5 3 SSW 1027,9 0,0
08.12.2018 16:00:00 14,8 8,9 2 1 14 7 E 1027,6 0,0
08.12.2018 15:00:00 13,4 7,6 11 6 14 7 NNE 1028,0 0,0
08.12.2018 14:00:00 13,9 6,5 4 2 10 6 NNE 1028,4 0,0
08.12.2018 13:00:00 15,3 6,8 3 1 10 5 S 1029,2 -
08.12.2018 12:00:00 13,2 8,1 6 4 12 7 S 1030,1 0,0
08.12.2018 11:00:00 10,2 7,4 8 4 16 9 SSW 1030,3 0,0
08.12.2018 10:00:00 7,3 5,3 10 5 20 11 SSW 1030,5 0,0
08.12.2018 09:00:00 6,1 4,1 11 6 16 9 SSW 1030,5 0,0
08.12.2018 08:00:00 7,0 4,8 6 3 16 9 SW 1030,7 0,0
08.12.2018 07:00:00 7,9 5,5 8 4 17 9 SW 1030,3 -
08.12.2018 06:00:00 8,4 5,6 5 3 16 9 WSW 1029,3 0,0
08.12.2018 05:00:00 7,4 5,1 8 4 16 8 SW 1029,9 0,0
08.12.2018 04:00:00 7,7 5,5 11 6 18 10 SSW 1030,1 0,0
08.12.2018 03:00:00 9,2 6,1 7 4 30 16 SSW 1029,2 0,0
08.12.2018 02:00:00 11,4 7,1 22 12 37 20 W 1029,3 0,0
08.12.2018 01:00:00 11,1 7,0 10 5 26 14 W 1029,4 -
08.12.2018 00:00:00 11,3 6,8 6 3 18 10 W 1029,6 0,0
07.12.2018 23:00:00 11,4 6,7 3 1 20 11 WSW 1029,9 0,0
07.12.2018 22:00:00 11,6 7,7 9 5 27 15 W 1029,9 0,0
07.12.2018 21:00:00 11,5 8,4 15 8 31 17 W 1029,7 0,0
07.12.2018 20:00:00 10,7 9,2 13 7 40 22 W 1029,5 2,0
07.12.2018 19:00:00 10,8 9,2 21 11 44 24 W 1028,9 -
07.12.2018 18:00:00 10,7 9,2 30 16 55 30 W 1028,0 0,4
07.12.2018 17:00:00 12,2 10,3 31 17 52 28 W 1027,1 0,0
07.12.2018 16:00:00 12,4 10,8 34 18 68 37 WNW 1026,2 0,0
07.12.2018 15:00:00 15,3 12,2 16 9 30 16 WNW 1024,4 0,0
07.12.2018 14:00:00 15,3 9,7 6 4 21 11 WSW 1023,8 0,0
07.12.2018 13:00:00 13,8 8,7 9 5 19 10 SSW 1023,8 -
07.12.2018 12:00:00 13,7 7,0 11 6 20 11 SSW 1023,9 0,0
07.12.2018 11:00:00 10,2 7,1 11 6 18 10 S 1024,4 0,0
07.12.2018 10:00:00 7,4 5,0 13 7 20 11 SSW 1024,9 0,0
07.12.2018 09:00:00 6,8 4,5 11 6 18 10 SSW 1025,7 0,0
07.12.2018 08:00:00 8,2 5,0 5 3 18 10 SSW 1026,1 0,0
07.12.2018 07:00:00 7,5 5,0 13 7 19 10 SSW 1025,0 -
07.12.2018 06:00:00 7,6 5,1 14 7 21 12 SSW 1024,6 0,0
07.12.2018 05:00:00 7,6 5,5 13 7 22 12 SSW 1025,0 0,0
07.12.2018 04:00:00 6,5 5,0 14 7 17 9 SSW 1025,9 0,0
07.12.2018 03:00:00 7,0 5,5 13 7 17 9 SSW 1026,5 0,0
07.12.2018 02:00:00 7,1 5,6 13 7 16 9 SSW 1026,8 0,0
07.12.2018 01:00:00 7,4 5,9 13 7 19 10 SSW 1027,7 -
07.12.2018 00:00:00 7,9 6,4 13 7 18 10 SSW 1028,3 0,0
06.12.2018 23:00:00 8,6 6,8 13 7 15 8 SSW 1028,6 0,0
06.12.2018 22:00:00 9,7 7,8 10 5 13 7 SSW 1028,9 0,0
06.12.2018 21:00:00 10,6 8,5 9 5 12 7 SSW 1029,5 0,0
06.12.2018 20:00:00 11,7 9,3 7 4 10 5 SSW 1029,8 0,0
06.12.2018 19:00:00 12,9 9,3 4 2 7 4 SSW 1030,0 -
06.12.2018 18:00:00 13,3 9,2 3 2 13 7 WSW 1029,8 0,0
06.12.2018 17:00:00 13,8 9,8 8 4 16 8 W 1029,6 0,0
06.12.2018 16:00:00 14,1 9,7 10 5 23 12 W 1029,4 0,0
06.12.2018 15:00:00 14,3 11,1 12 6 26 14 W 1029,5 0,0
06.12.2018 14:00:00 14,5 11,2 14 8 23 12 WNW 1029,6 0,0
06.12.2018 13:00:00 14,4 11,2 12 7 24 13 WNW 1030,2 -
06.12.2018 12:00:00 14,4 10,6 11 6 20 11 W 1030,8 0,0
06.12.2018 11:00:00 13,8 10,8 10 6 22 12 W 1030,3 0,0
06.12.2018 10:00:00 12,6 10,3 5 3 10 6 SSW 1030,0 0,0
06.12.2018 09:00:00 11,6 9,6 6 4 14 7 SSW 1029,5 0,0
06.12.2018 08:00:00 12,3 10,0 6 3 15 8 WSW 1029,0 0,0
06.12.2018 07:00:00 11,5 9,2 8 4 13 7 SW 1028,5 -
06.12.2018 06:00:00 11,7 9,6 8 4 14 8 SW 1028,4 0,0
06.12.2018 05:00:00 12,4 10,4 5 3 13 7 SW 1027,9 0,0
06.12.2018 04:00:00 12,5 10,8 6 4 11 6 SW 1027,8 0,0
06.12.2018 03:00:00 12,3 10,5 6 3 9 5 SSW 1027,6 0,0
06.12.2018 02:00:00 13,2 11,1 4 2 10 5 SW 1026,9 0,0
06.12.2018 01:00:00 11,7 9,6 10 5 12 6 SSW 1027,3 -
06.12.2018 00:00:00 12,5 10,4 8 4 11 6 SSW 1026,8 0,0
05.12.2018 23:00:00 12,2 10,0 8 5 14 8 SSW 1026,4 0,0
05.12.2018 22:00:00 11,8 9,7 9 5 16 9 SSW 1026,0 0,0
05.12.2018 21:00:00 11,9 9,8 11 6 17 9 SSW 1024,9 0,0
05.12.2018 20:00:00 12,8 10,3 13 7 17 9 SW 1023,9 0,0
05.12.2018 19:00:00 13,8 11,3 13 7 17 9 SW 1023,1 -
05.12.2018 18:00:00 15,1 11,9 5 3 12 6 S 1022,5 0,0
05.12.2018 17:00:00 16,4 12,1 6 3 14 8 S 1022,1 0,0
05.12.2018 16:00:00 17,2 12,1 9 5 16 8 SSE 1022,1 0,0
05.12.2018 15:00:00 16,2 13,0 0 0 6 4 N 1022,5 0,0
05.12.2018 14:00:00 16,6 13,9 1 0 8 5 NW 1022,1 0,0
05.12.2018 13:00:00 14,0 12,2 6 3 11 6 NW 1022,6 -
05.12.2018 12:00:00 13,4 11,8 9 5 16 8 S 1022,0 0,0
05.12.2018 11:00:00 11,8 10,4 10 5 16 9 S 1023,6 0,0
05.12.2018 10:00:00 10,3 8,9 10 6 14 8 SSW 1023,8 0,0
05.12.2018 09:00:00 9,7 8,3 11 6 15 8 SSW 1023,0 0,0
05.12.2018 08:00:00 10,1 8,7 10 5 18 10 SW 1022,5 0,0
05.12.2018 07:00:00 11,3 9,9 6 3 15 8 SSW 1022,1 -
05.12.2018 06:00:00 11,5 10,0 4 2 28 15 SW 1022,0 0,0
05.12.2018 05:00:00 12,2 10,8 13 7 24 13 W 1021,4 0,0
05.12.2018 04:00:00 10,0 8,4 5 3 16 9 WSW 1021,1 0,0
05.12.2018 03:00:00 11,1 9,6 4 2 22 12 WSW 1020,8 0,0
05.12.2018 02:00:00 10,0 8,3 9 5 15 8 SW 1020,4 0,0
05.12.2018 01:00:00 10,4 8,5 6 4 16 8 SSW 1020,5 -
05.12.2018 00:00:00 11,3 9,6 13 7 16 8 SW 1020,0 0,0
04.12.2018 23:00:00 11,6 10,0 13 7 15 8 SW 1020,0 0,0
04.12.2018 22:00:00 11,0 9,4 11 6 14 8 SSW 1020,1 0,0
04.12.2018 21:00:00 12,0 10,4 8 4 13 7 SW 1020,1 0,0
04.12.2018 20:00:00 13,1 11,4 5 3 10 5 W 1020,1 0,0
04.12.2018 19:00:00 13,5 11,9 8 4 10 6 SSW 1019,6 -
04.12.2018 18:00:00 14,5 12,7 7 4 9 5 SSW 1019,3 0,0
04.12.2018 17:00:00 14,8 12,8 0 0 10 5 ENE 1019,6 0,0
04.12.2018 16:00:00 15,5 13,4 1 1 12 7 NE 1019,4 0,0
04.12.2018 15:00:00 15,5 13,2 2 1 14 7 E 1019,7 0,0
04.12.2018 14:00:00 15,6 13,5 7 4 13 7 E 1020,8 0,0
04.12.2018 13:00:00 15,2 12,8 4 2 6 4 ENE 1021,5 -
04.12.2018 12:00:00 15,4 13,3 2 1 7 4 E 1022,2 0,0
04.12.2018 11:00:00 13,6 12,0 3 2 14 8 ESE 1022,7 0,0

tt = temperature
td = dewpoint
ff = wind speed
fx = gusts
dd = wind direction
ppp = reduced air pressure
rr = precipitation

Next stations